createdAt,value
2023-05-15T00:00:18.834Z,57.83
2023-05-15T00:02:51.815Z,57.70
2023-05-15T00:05:24.627Z,57.92
2023-05-15T00:07:57.697Z,57.88
2023-05-15T00:10:30.329Z,57.89
2023-05-15T00:13:04.566Z,57.85
2023-05-15T00:15:37.346Z,58.29
2023-05-15T00:18:10.132Z,58.18
2023-05-15T00:20:42.945Z,58.32
2023-05-15T00:23:16.037Z,58.11
2023-05-15T00:25:48.896Z,58.33
2023-05-15T00:28:22.828Z,57.87
2023-05-15T00:30:55.703Z,57.95
2023-05-15T00:33:28.907Z,57.93
2023-05-15T00:36:01.670Z,57.87
2023-05-15T00:38:34.675Z,58.01
2023-05-15T00:41:11.707Z,58.23
2023-05-15T00:43:46.922Z,58.28
2023-05-15T00:46:22.371Z,58.37
2023-05-15T00:48:58.910Z,58.09
2023-05-15T00:51:31.754Z,58.24
2023-05-15T00:54:05.075Z,58.20
2023-05-15T00:56:38.378Z,58.38
2023-05-15T00:59:14.160Z,58.21
2023-05-15T01:01:46.938Z,58.65
2023-05-15T01:04:19.957Z,58.44
2023-05-15T01:06:56.521Z,58.71
2023-05-15T01:09:32.004Z,58.51
2023-05-15T01:12:08.433Z,58.58
2023-05-15T01:14:42.945Z,58.74
2023-05-15T01:17:15.730Z,58.73
2023-05-15T01:19:52.524Z,58.90
2023-05-15T01:22:45.758Z,58.92
2023-05-15T01:26:09.370Z,58.72
2023-05-15T01:28:47.703Z,58.98
2023-05-15T01:31:23.633Z,59.22
2023-05-15T01:34:03.987Z,58.73
2023-05-15T01:36:44.074Z,58.85
2023-05-15T01:39:24.145Z,58.78
2023-05-15T01:42:04.850Z,58.94
2023-05-15T01:44:44.461Z,58.96
2023-05-15T01:47:23.300Z,58.95
2023-05-15T01:49:58.483Z,58.98
2023-05-15T01:52:35.073Z,58.99
2023-05-15T01:55:10.969Z,59.03
2023-05-15T01:57:44.740Z,59.03
2023-05-15T02:00:21.532Z,59.21
2023-05-15T02:02:55.807Z,59.32
2023-05-15T02:05:30.431Z,59.09
2023-05-15T02:08:04.302Z,59.16
2023-05-15T02:10:37.545Z,59.26
2023-05-15T02:13:11.477Z,59.00
2023-05-15T02:15:45.704Z,59.02
2023-05-15T02:18:20.190Z,59.14
2023-05-15T02:20:53.141Z,59.28
2023-05-15T02:23:25.727Z,58.93
2023-05-15T02:26:12.119Z,59.25
2023-05-15T02:28:51.518Z,59.31
2023-05-15T02:31:32.803Z,59.20
2023-05-15T02:34:14.006Z,59.36
2023-05-15T02:36:50.823Z,59.16
2023-05-15T02:39:25.140Z,59.46
2023-05-15T02:41:59.032Z,59.26
2023-05-15T02:44:32.970Z,59.28
2023-05-15T02:47:08.751Z,59.31
2023-05-15T02:49:44.114Z,59.38
2023-05-15T02:52:19.215Z,59.32
2023-05-15T02:54:52.328Z,59.37
2023-05-15T02:57:25.447Z,59.54
2023-05-15T02:59:59.033Z,59.18
2023-05-15T03:02:33.638Z,59.54
2023-05-15T03:05:07.668Z,59.59
2023-05-15T03:07:41.512Z,59.03
2023-05-15T03:10:14.388Z,59.10
2023-05-15T03:12:47.114Z,59.08
2023-05-15T03:15:20.363Z,59.32
2023-05-15T03:17:54.632Z,58.96
2023-05-15T03:20:27.711Z,59.25
2023-05-15T03:23:00.860Z,59.14
2023-05-15T03:25:33.979Z,59.10
2023-05-15T03:28:06.637Z,59.16
2023-05-15T03:30:39.477Z,59.16
2023-05-15T03:33:13.634Z,59.28
2023-05-15T03:35:46.579Z,59.18
2023-05-15T03:38:21.517Z,59.38
2023-05-15T03:40:54.451Z,59.47
2023-05-15T03:43:27.124Z,59.34
2023-05-15T03:46:00.670Z,59.43
2023-05-15T03:48:34.975Z,59.52
2023-05-15T03:51:12.128Z,59.42
2023-05-15T03:53:44.995Z,59.74
2023-05-15T03:56:18.020Z,59.72
2023-05-15T03:58:50.872Z,59.60
2023-05-15T04:01:24.036Z,59.52
2023-05-15T04:03:58.388Z,59.25
2023-05-15T04:06:31.570Z,59.51
2023-05-15T04:09:04.866Z,59.47
2023-05-15T04:11:37.707Z,59.72
2023-05-15T04:14:10.963Z,59.43
2023-05-15T04:16:44.459Z,59.62
2023-05-15T04:19:20.845Z,60.00
2023-05-15T04:21:53.942Z,59.77
2023-05-15T04:24:26.749Z,59.52
2023-05-15T04:26:59.568Z,59.75
2023-05-15T04:29:32.499Z,59.77
2023-05-15T04:32:05.851Z,59.86
2023-05-15T04:34:40.915Z,59.56
2023-05-15T04:37:13.800Z,59.78
2023-05-15T04:39:46.413Z,59.50
2023-05-15T04:42:19.332Z,59.48
2023-05-15T04:44:52.131Z,59.93
2023-05-15T04:47:25.027Z,59.70
2023-05-15T04:49:59.402Z,59.89
2023-05-15T04:52:32.459Z,59.43
2023-05-15T04:55:06.279Z,59.84
2023-05-15T04:57:39.171Z,59.54
2023-05-15T05:00:14.399Z,59.73
2023-05-15T05:02:47.459Z,59.58
2023-05-15T05:05:22.147Z,59.52
2023-05-15T05:07:55.034Z,59.65
2023-05-15T05:10:30.440Z,59.82
2023-05-15T05:13:03.279Z,59.74
2023-05-15T05:15:37.343Z,59.73
2023-05-15T05:18:10.429Z,60.03
2023-05-15T05:20:44.425Z,60.04
2023-05-15T05:23:18.271Z,59.87
2023-05-15T05:25:51.079Z,60.12
2023-05-15T05:28:24.628Z,59.97
2023-05-15T05:30:57.493Z,60.17
2023-05-15T05:33:30.416Z,59.93
2023-05-15T05:36:05.232Z,59.96
2023-05-15T05:38:38.254Z,60.06
2023-05-15T05:41:10.885Z,60.05
2023-05-15T05:43:43.720Z,60.05
2023-05-15T05:46:16.618Z,59.76
2023-05-15T05:48:49.336Z,60.01
2023-05-15T05:51:23.561Z,60.13
2023-05-15T05:53:56.683Z,59.98
2023-05-15T05:56:29.816Z,59.86
2023-05-15T05:59:02.866Z,60.08
2023-05-15T06:01:35.773Z,59.93
2023-05-15T06:04:08.704Z,60.03
2023-05-15T06:06:42.694Z,60.02
2023-05-15T06:09:15.659Z,59.77
2023-05-15T06:11:48.385Z,59.90
2023-05-15T06:14:23.703Z,59.95
2023-05-15T06:16:56.703Z,60.07
2023-05-15T06:19:30.012Z,59.90
2023-05-15T06:22:04.742Z,59.77
2023-05-15T06:24:37.675Z,59.76
2023-05-15T06:27:10.402Z,59.52
2023-05-15T06:29:43.236Z,59.63
2023-05-15T06:32:16.035Z,59.71
2023-05-15T06:34:49.039Z,59.44
2023-05-15T06:37:26.052Z,59.72
2023-05-15T06:39:59.088Z,59.21
2023-05-15T06:42:32.350Z,59.17
2023-05-15T06:45:06.484Z,59.22
2023-05-15T06:47:39.471Z,59.20
2023-05-15T06:50:12.644Z,59.00
2023-05-15T06:52:47.115Z,58.69
2023-05-15T06:55:20.647Z,58.79
2023-05-15T06:57:54.191Z,58.81
2023-05-15T07:00:27.571Z,58.91
2023-05-15T07:03:00.373Z,59.03
2023-05-15T07:05:33.150Z,59.15
2023-05-15T07:08:09.685Z,59.13
2023-05-15T07:10:42.533Z,58.93
2023-05-15T07:13:17.864Z,58.74
2023-05-15T07:15:50.913Z,58.97
2023-05-15T07:18:24.015Z,58.78
2023-05-15T07:20:56.984Z,59.03
2023-05-15T07:23:32.263Z,58.79
2023-05-15T07:26:05.497Z,59.33
2023-05-15T07:28:38.346Z,59.01
2023-05-15T07:31:11.439Z,59.32
2023-05-15T07:33:44.328Z,59.12
2023-05-15T07:36:17.551Z,59.15
2023-05-15T07:38:51.856Z,59.22
2023-05-15T07:41:24.783Z,59.39
2023-05-15T07:43:57.692Z,59.17
2023-05-15T07:46:30.939Z,59.21
2023-05-15T07:49:04.384Z,59.26
2023-05-15T07:51:37.361Z,59.35
2023-05-15T07:54:11.489Z,59.18
2023-05-15T07:56:44.885Z,59.63
2023-05-15T07:59:20.117Z,59.61
2023-05-15T08:01:53.200Z,59.88
2023-05-15T08:04:25.938Z,59.86
2023-05-15T08:06:58.856Z,59.87
2023-05-15T08:09:32.996Z,59.96
2023-05-15T08:12:20.802Z,59.92
2023-05-15T08:14:55.685Z,59.80
2023-05-15T08:17:29.112Z,59.92
2023-05-15T08:20:02.020Z,59.84
2023-05-15T08:22:35.002Z,59.97
2023-05-15T08:25:10.885Z,59.93
2023-05-15T08:27:44.057Z,59.98
2023-05-15T08:30:18.209Z,60.04
2023-05-15T08:32:51.255Z,60.01
2023-05-15T08:35:25.392Z,59.56
2023-05-15T08:38:00.666Z,59.62
2023-05-15T08:40:39.596Z,59.32
2023-05-15T08:43:16.465Z,59.26
2023-05-15T08:45:50.687Z,59.18
2023-05-15T08:48:26.205Z,59.18
2023-05-15T08:51:01.596Z,59.06
2023-05-15T08:53:38.261Z,58.86
2023-05-15T08:56:15.634Z,58.78
2023-05-15T08:58:49.154Z,58.56
2023-05-15T09:01:22.823Z,58.98
2023-05-15T09:03:55.777Z,59.39
2023-05-15T09:06:29.168Z,59.05
2023-05-15T09:09:02.280Z,58.75
2023-05-15T09:11:37.895Z,59.53
2023-05-15T09:14:11.042Z,59.27
2023-05-15T09:16:44.561Z,59.69
2023-05-15T09:19:20.260Z,59.72
2023-05-15T09:21:53.238Z,59.55
2023-05-15T09:24:29.183Z,59.47
2023-05-15T09:27:06.785Z,59.19
2023-05-15T09:29:40.680Z,59.62
2023-05-15T09:32:15.606Z,58.50
2023-05-15T09:34:48.702Z,60.04
2023-05-15T09:37:38.964Z,58.20
2023-05-15T09:40:22.208Z,58.94
2023-05-15T09:42:56.500Z,58.15
2023-05-15T09:45:31.645Z,58.80
2023-05-15T09:48:07.032Z,58.86
2023-05-15T09:50:43.070Z,58.29
2023-05-15T09:53:21.423Z,57.62
2023-05-15T09:55:55.157Z,58.19
2023-05-15T09:58:29.548Z,58.15
2023-05-15T10:01:03.143Z,58.27
2023-05-15T10:03:39.991Z,58.47
2023-05-15T10:06:19.755Z,58.63
2023-05-15T10:08:54.255Z,58.45
2023-05-15T10:11:27.612Z,58.74
2023-05-15T10:14:05.086Z,57.48
2023-05-15T10:16:39.683Z,58.55
2023-05-15T10:19:14.110Z,58.30
2023-05-15T10:21:48.691Z,58.07
2023-05-15T10:24:22.997Z,58.18
2023-05-15T10:26:57.462Z,58.34
2023-05-15T10:29:33.315Z,58.14
2023-05-15T10:32:06.423Z,58.50
2023-05-15T10:34:40.252Z,57.84
2023-05-15T10:37:15.903Z,58.24
2023-05-15T10:39:50.495Z,58.12
2023-05-15T10:42:25.184Z,58.14
2023-05-15T10:45:02.645Z,57.52
2023-05-15T10:47:36.440Z,58.17
2023-05-15T10:50:11.060Z,58.19
2023-05-15T10:52:44.116Z,58.00
2023-05-15T10:55:20.548Z,57.61
2023-05-15T10:57:54.945Z,57.89
2023-05-15T11:00:31.625Z,57.51
2023-05-15T11:03:06.347Z,57.31
2023-05-15T11:06:10.746Z,57.55
2023-05-15T11:08:46.528Z,57.79
2023-05-15T11:11:58.150Z,57.27
2023-05-15T11:14:32.772Z,57.27
2023-05-15T11:17:09.302Z,57.54
2023-05-15T11:20:00.947Z,57.42
2023-05-15T11:22:36.127Z,56.84
2023-05-15T11:25:12.621Z,57.47
2023-05-15T11:27:46.654Z,56.88
2023-05-15T11:30:22.419Z,56.78
2023-05-15T11:33:01.619Z,57.26
2023-05-15T11:35:36.087Z,57.10
2023-05-15T11:38:13.932Z,57.05
2023-05-15T11:40:48.317Z,56.65
2023-05-15T11:43:24.762Z,57.11
2023-05-15T11:45:59.036Z,56.95
2023-05-15T11:48:34.806Z,57.01
2023-05-15T11:51:17.622Z,56.88
2023-05-15T11:53:52.140Z,56.91
2023-05-15T11:56:28.262Z,56.91
2023-05-15T11:59:02.407Z,56.83
2023-05-15T12:01:41.322Z,56.84
2023-05-15T12:04:16.937Z,56.72
2023-05-15T12:06:50.265Z,56.70
2023-05-15T12:09:27.258Z,56.81
2023-05-15T12:12:00.476Z,56.90
2023-05-15T12:14:33.947Z,56.79
2023-05-15T12:17:07.161Z,56.70
2023-05-15T12:19:42.159Z,56.67
2023-05-15T12:22:15.500Z,56.75
2023-05-15T12:24:48.741Z,56.79
2023-05-15T12:27:21.877Z,56.08
2023-05-15T12:29:55.485Z,56.28
2023-05-15T12:32:35.156Z,56.39
2023-05-15T12:35:11.755Z,56.49
2023-05-15T12:37:45.927Z,56.65
2023-05-15T12:40:21.982Z,56.72
2023-05-15T12:42:55.525Z,56.29
2023-05-15T12:45:28.886Z,56.20
2023-05-15T12:48:03.574Z,56.14
2023-05-15T12:50:37.806Z,55.96
2023-05-15T12:53:13.867Z,56.87
2023-05-15T12:55:47.739Z,56.84
2023-05-15T12:58:21.411Z,56.58
2023-05-15T13:00:54.882Z,56.97
2023-05-15T13:03:28.716Z,56.41
2023-05-15T13:06:03.673Z,57.20
2023-05-15T13:08:41.607Z,57.10
2023-05-15T13:11:15.434Z,56.57
2023-05-15T13:13:49.491Z,57.29
2023-05-15T13:16:29.477Z,57.17
2023-05-15T13:19:02.771Z,57.00
2023-05-15T13:21:37.398Z,57.78
2023-05-15T13:24:10.880Z,57.94
2023-05-15T13:26:43.852Z,58.11
2023-05-15T13:29:16.849Z,57.78
2023-05-15T13:31:49.898Z,57.85
2023-05-15T13:34:22.854Z,57.40
2023-05-15T13:36:57.111Z,57.83
2023-05-15T13:39:30.096Z,57.34
2023-05-15T13:42:02.942Z,57.84
2023-05-15T13:44:37.635Z,58.46
2023-05-15T13:47:13.727Z,58.35
2023-05-15T13:49:46.637Z,58.43
2023-05-15T13:52:20.776Z,58.13
2023-05-15T13:54:53.777Z,58.31
2023-05-15T13:57:26.710Z,57.99
2023-05-15T14:00:00.298Z,57.96
2023-05-15T14:02:33.290Z,57.94
2023-05-15T14:05:06.723Z,57.94
2023-05-15T14:07:41.195Z,58.24
2023-05-15T14:10:14.166Z,58.41
2023-05-15T14:12:47.150Z,58.19
2023-05-15T14:15:19.887Z,57.62
2023-05-15T14:17:54.740Z,57.72
2023-05-15T14:20:27.934Z,58.08
2023-05-15T14:23:02.150Z,57.96
2023-05-15T14:25:34.894Z,58.24
2023-05-15T14:28:07.727Z,58.12
2023-05-15T14:30:40.564Z,58.41
2023-05-15T14:33:13.568Z,58.31
2023-05-15T14:35:46.370Z,58.09
2023-05-15T14:38:21.830Z,58.40
2023-05-15T14:40:56.019Z,58.25
2023-05-15T14:43:29.478Z,58.53
2023-05-15T14:46:02.472Z,58.42
2023-05-15T14:48:35.322Z,58.11
2023-05-15T14:51:08.340Z,58.81
2023-05-15T14:53:43.069Z,58.55
2023-05-15T14:56:16.282Z,58.57
2023-05-15T14:58:49.071Z,58.62
2023-05-15T15:01:22.026Z,58.51
2023-05-15T15:03:54.642Z,58.44
2023-05-15T15:06:27.567Z,58.72
2023-05-15T15:09:01.783Z,58.57
2023-05-15T15:11:34.806Z,58.58
2023-05-15T15:14:07.768Z,58.33
2023-05-15T15:16:41.054Z,58.66
2023-05-15T15:19:14.168Z,58.57
2023-05-15T15:21:47.737Z,58.73
2023-05-15T15:24:22.361Z,58.71
2023-05-15T15:26:55.658Z,58.51
2023-05-15T15:29:28.519Z,58.66
2023-05-15T15:32:01.604Z,58.84
2023-05-15T15:34:34.274Z,58.87
2023-05-15T15:37:07.207Z,58.87
2023-05-15T15:39:41.334Z,58.79
2023-05-15T15:42:14.418Z,58.61
2023-05-15T15:44:47.225Z,58.87
2023-05-15T15:47:20.334Z,58.61
2023-05-15T15:50:00.908Z,58.70
2023-05-15T15:52:33.896Z,58.80
2023-05-15T15:55:10.096Z,58.73
2023-05-15T15:57:43.939Z,58.77
2023-05-15T16:00:20.753Z,58.80
2023-05-15T16:02:53.969Z,58.56
2023-05-15T16:05:26.948Z,58.65
2023-05-15T16:07:59.612Z,58.74
2023-05-15T16:10:33.826Z,59.05
2023-05-15T16:13:09.161Z,58.71
2023-05-15T16:15:41.976Z,58.82
2023-05-15T16:18:15.017Z,58.81
2023-05-15T16:20:48.735Z,58.49
2023-05-15T16:23:23.484Z,58.58
2023-05-15T16:25:57.748Z,58.51
2023-05-15T16:28:30.670Z,58.73
2023-05-15T16:31:04.378Z,58.30
2023-05-15T16:33:37.527Z,58.56
2023-05-15T16:36:10.484Z,58.30
2023-05-15T16:38:43.203Z,58.48
2023-05-15T16:41:18.656Z,58.31
2023-05-15T16:43:51.502Z,58.25
2023-05-15T16:46:24.209Z,58.19
2023-05-15T16:48:57.485Z,58.37
2023-05-15T16:51:31.587Z,57.92
2023-05-15T16:54:04.661Z,58.18
2023-05-15T16:56:38.875Z,58.08
2023-05-15T16:59:11.887Z,58.65
2023-05-15T17:01:44.846Z,58.25
2023-05-15T17:04:17.802Z,58.36
2023-05-15T17:06:50.869Z,58.19
2023-05-15T17:09:28.404Z,57.96
2023-05-15T17:12:04.883Z,57.91
2023-05-15T17:14:37.777Z,58.01
2023-05-15T17:17:10.630Z,58.18
2023-05-15T17:19:45.425Z,57.84
2023-05-15T17:22:19.185Z,57.89
2023-05-15T17:24:53.017Z,57.88
2023-05-15T17:27:27.689Z,57.92
2023-05-15T17:30:00.960Z,57.89
2023-05-15T17:32:34.734Z,57.72
2023-05-15T17:35:09.128Z,57.86
2023-05-15T17:37:42.580Z,57.69
2023-05-15T17:40:15.536Z,57.72
2023-05-15T17:42:49.740Z,57.48
2023-05-15T17:45:22.686Z,57.53
2023-05-15T17:48:02.763Z,57.41
2023-05-15T17:50:38.994Z,57.64
2023-05-15T17:53:12.090Z,57.57
2023-05-15T17:55:45.273Z,57.56
2023-05-15T17:58:21.185Z,57.45
2023-05-15T18:00:54.461Z,57.23
2023-05-15T18:03:27.606Z,57.36
2023-05-15T18:06:00.449Z,57.77
2023-05-15T18:08:33.952Z,57.24
2023-05-15T18:11:14.257Z,57.51
2023-05-15T18:13:56.611Z,57.46
2023-05-15T18:16:31.264Z,57.40
2023-05-15T18:19:04.265Z,57.19
2023-05-15T18:21:38.053Z,57.43
2023-05-15T18:24:13.676Z,57.50
2023-05-15T18:26:46.699Z,57.39
2023-05-15T18:29:21.146Z,57.62
2023-05-15T18:31:54.215Z,57.37
2023-05-15T18:34:27.109Z,57.32
2023-05-15T18:37:02.644Z,57.19
2023-05-15T18:39:38.919Z,57.07
2023-05-15T18:42:11.941Z,57.21
2023-05-15T18:44:47.122Z,56.96
2023-05-15T18:47:20.280Z,57.14
2023-05-15T18:49:53.134Z,57.39
2023-05-15T18:52:27.018Z,57.48
2023-05-15T18:55:01.319Z,57.50
2023-05-15T18:57:34.225Z,57.33
2023-05-15T19:00:09.703Z,57.28
2023-05-15T19:02:42.723Z,57.24
2023-05-15T19:05:16.108Z,57.68
2023-05-15T19:07:50.403Z,57.44
2023-05-15T19:10:23.195Z,57.37
2023-05-15T19:12:56.136Z,57.25
2023-05-15T19:15:30.369Z,57.02
2023-05-15T19:18:03.658Z,56.80
2023-05-15T19:20:36.579Z,57.09
2023-05-15T19:23:09.835Z,56.91
2023-05-15T19:25:42.667Z,56.84
2023-05-15T19:28:15.540Z,57.01
2023-05-15T19:30:49.966Z,57.20
2023-05-15T19:33:23.643Z,56.95
2023-05-15T19:35:56.853Z,56.74
2023-05-15T19:38:29.860Z,56.79
2023-05-15T19:41:03.681Z,56.99
2023-05-15T19:43:39.102Z,56.76
2023-05-15T19:46:13.705Z,57.04
2023-05-15T19:48:47.249Z,57.13
2023-05-15T19:51:20.405Z,57.49
2023-05-15T19:53:53.306Z,57.15
2023-05-15T19:56:26.910Z,57.22
2023-05-15T19:59:00.494Z,57.41
2023-05-15T20:01:34.853Z,57.10
2023-05-15T20:04:07.965Z,57.21
2023-05-15T20:06:41.011Z,56.89
2023-05-15T20:09:15.730Z,57.20
2023-05-15T20:11:48.863Z,57.21
2023-05-15T20:14:21.976Z,57.53
2023-05-15T20:16:56.677Z,57.10
2023-05-15T20:19:31.553Z,57.35
2023-05-15T20:22:04.506Z,57.53
2023-05-15T20:24:37.882Z,57.71
2023-05-15T20:27:11.182Z,57.62
2023-05-15T20:29:45.481Z,57.40
2023-05-15T20:32:19.886Z,57.44
2023-05-15T20:34:53.948Z,57.32
2023-05-15T20:37:27.327Z,57.50
2023-05-15T20:40:00.870Z,57.17
2023-05-15T20:42:35.802Z,57.56
2023-05-15T20:45:09.272Z,57.27
2023-05-15T20:47:43.615Z,57.30
2023-05-15T20:50:17.016Z,57.49
2023-05-15T20:52:49.969Z,57.54
2023-05-15T20:55:22.798Z,57.74
2023-05-15T20:57:55.600Z,57.37
2023-05-15T21:00:28.659Z,57.13
2023-05-15T21:03:03.180Z,57.34
2023-05-15T21:05:36.135Z,57.48
2023-05-15T21:08:08.836Z,57.50
2023-05-15T21:10:41.967Z,57.47
2023-05-15T21:13:14.826Z,57.56
2023-05-15T21:15:48.112Z,57.50
2023-05-15T21:18:24.293Z,57.41
2023-05-15T21:20:59.574Z,57.36
2023-05-15T21:23:32.409Z,57.61
2023-05-15T21:26:05.235Z,57.14
2023-05-15T21:28:37.995Z,57.62
2023-05-15T21:31:11.965Z,57.33
2023-05-15T21:33:48.269Z,57.34
2023-05-15T21:36:22.950Z,57.70
2023-05-15T21:38:55.662Z,57.86
2023-05-15T21:41:28.568Z,57.72
2023-05-15T21:44:01.203Z,57.92
2023-05-15T21:46:34.274Z,57.63
2023-05-15T21:49:08.593Z,57.97
2023-05-15T21:51:41.384Z,57.61
2023-05-15T21:54:14.323Z,57.53
2023-05-15T21:56:47.054Z,57.63
2023-05-15T21:59:19.795Z,57.68
2023-05-15T22:01:52.751Z,57.72
2023-05-15T22:04:28.679Z,58.04
2023-05-15T22:07:01.917Z,57.38
2023-05-15T22:09:34.955Z,57.84
2023-05-15T22:12:08.461Z,57.72
2023-05-15T22:14:54.472Z,57.43
2023-05-15T22:17:31.359Z,57.82
2023-05-15T22:20:11.267Z,57.80
2023-05-15T22:22:44.335Z,57.74
2023-05-15T22:25:17.091Z,57.76
2023-05-15T22:27:50.226Z,57.72
2023-05-15T22:30:23.072Z,57.93
2023-05-15T22:32:55.776Z,57.81
2023-05-15T22:35:29.994Z,57.95
2023-05-15T22:38:02.750Z,57.95
2023-05-15T22:40:35.525Z,57.81
2023-05-15T22:43:08.392Z,58.08
2023-05-15T22:45:41.397Z,57.73
2023-05-15T22:48:15.798Z,58.01
2023-05-15T22:50:52.131Z,57.67
2023-05-15T22:53:24.905Z,58.07
2023-05-15T22:55:57.703Z,58.07
2023-05-15T22:58:30.515Z,57.32
2023-05-15T23:01:04.214Z,57.88
2023-05-15T23:03:37.136Z,57.81
2023-05-15T23:06:11.292Z,57.80
2023-05-15T23:08:44.944Z,57.74
2023-05-15T23:11:20.444Z,58.38
2023-05-15T23:13:53.435Z,58.10
2023-05-15T23:16:26.844Z,58.15
2023-05-15T23:18:59.787Z,57.75
2023-05-15T23:21:34.548Z,57.88
2023-05-15T23:24:07.710Z,57.90
2023-05-15T23:26:41.576Z,57.87
2023-05-15T23:29:14.756Z,57.97
2023-05-15T23:31:47.750Z,58.00
2023-05-15T23:34:20.553Z,57.87
2023-05-15T23:36:54.703Z,57.59
2023-05-15T23:39:27.562Z,57.70
2023-05-15T23:42:00.981Z,58.05
2023-05-15T23:44:33.710Z,58.35
2023-05-15T23:47:07.138Z,58.23
2023-05-15T23:49:40.292Z,57.86
2023-05-15T23:52:14.483Z,58.22
2023-05-15T23:54:47.314Z,57.93
2023-05-15T23:57:20.111Z,58.16
2023-05-15T23:59:53.015Z,58.04
